Time;durP1;ratioP1;P1;durP2;ratioP2;P2;SDS_P1;SDS_P2;PMS_P1;PMS_P2;Temp;Humidity;BMP_temperature;BMP_pressure;BME280_temperature;BME280_humidity;BME280_pressure;Samples;Min_cycle;Max_cycle;Signal;HPM_P1;HPM_P2
2022/05/21 00:00:17;;;;;;;4.78;1.15;;;;;;;18.98;39.52;101604.50;4935297;29;20059;-87
2022/05/21 00:02:45;;;;;;;4.45;1.27;;;;;;;18.97;39.88;101605.38;4934658;29;20047;-86
2022/05/21 00:05:14;;;;;;;3.60;1.15;;;;;;;18.89;38.56;101604.44;4934630;29;20047;-86
2022/05/21 00:07:44;;;;;;;2.72;1.00;;;;;;;18.83;38.40;101604.41;4933164;29;20513;-85
2022/05/21 00:10:14;;;;;;;2.70;0.88;;;;;;;18.76;37.73;101599.91;4936255;29;20090;-87
2022/05/21 00:12:44;;;;;;;4.18;1.70;;;;;;;18.65;40.32;101596.31;4932980;29;20051;-88
2022/05/21 00:15:14;;;;;;;4.95;2.17;;;;;;;18.55;39.25;101595.34;4933862;29;20568;-87
2022/05/21 00:17:43;;;;;;;4.60;1.50;;;;;;;18.41;39.21;101595.19;4939405;29;20542;-87
2022/05/21 00:22:56;;;;;;;3.88;1.20;;;;;;;18.34;39.18;101604.72;4933773;29;20043;-86
2022/05/21 00:25:25;;;;;;;3.42;1.08;;;;;;;18.27;38.96;101591.56;4937085;29;20051;-87
2022/05/21 00:27:54;;;;;;;4.15;1.13;;;;;;;18.23;40.07;101600.22;4919876;29;20131;-84
2022/05/21 00:30:22;;;;;;;2.22;1.10;;;;;;;18.18;41.72;101595.81;4936632;29;20052;-86
2022/05/21 00:32:51;;;;;;;4.57;1.33;;;;;;;18.11;41.31;101593.97;4936207;29;20111;-86
2022/05/21 00:35:19;;;;;;;1.90;1.17;;;;;;;18.05;40.04;101593.94;4933915;29;20494;-85
2022/05/21 00:37:48;;;;;;;1.70;1.00;;;;;;;17.98;39.92;101592.06;4935271;29;20090;-85
2022/05/21 00:40:18;;;;;;;2.45;1.00;;;;;;;17.98;40.95;101592.97;4937747;29;20052;-85
2022/05/21 00:42:47;;;;;;;3.80;1.00;;;;;;;17.85;41.70;101595.44;4941144;29;20501;-85
2022/05/21 00:45:17;;;;;;;6.57;1.40;;;;;;;17.84;40.48;101588.41;4940915;29;20102;-87
2022/05/21 00:47:45;;;;;;;3.97;1.10;;;;;;;17.79;41.67;101586.56;4939370;29;20107;-88
2022/05/21 00:50:18;;;;;;;5.88;2.35;;;;;;;17.86;41.45;101586.69;4937921;29;20482;-85
2022/05/21 00:52:46;;;;;;;;;;;;;;;17.86;41.92;101581.47;4937385;29;20059;-87
2022/05/21 00:55:19;;;;;;;1.88;1.00;;;;;;;17.92;41.92;101592.03;4937514;29;19978;-87
2022/05/21 00:59:47;;;;;;;5.80;1.48;;;;;;;18.04;42.60;101584.31;4942304;28;20090;-84
2022/05/21 01:00:42;;;;;;;3.45;1.13;;;;;;;18.14;42.19;101578.34;4943987;29;20054;-87
2022/05/21 01:03:13;;;;;;;2.88;1.13;;;;;;;18.17;41.36;101567.88;4938931;29;20047;-86
2022/05/21 01:05:44;;;;;;;3.25;1.02;;;;;;;18.33;41.67;101570.66;4918054;29;20059;-86
2022/05/21 01:08:13;;;;;;;4.05;1.02;;;;;;;18.36;41.18;101578.56;4920920;29;20059;-86
2022/05/21 01:10:48;;;;;;;6.57;1.83;;;;;;;18.39;41.56;101571.63;4921217;29;20164;-85
2022/05/21 01:13:19;;;;;;;2.25;1.00;;;;;;;18.51;42.16;101578.72;4926254;29;20048;-86
2022/05/21 01:15:53;;;;;;;6.13;1.33;;;;;;;18.63;40.69;101568.34;4957283;29;20098;-86
2022/05/21 01:18:21;;;;;;;4.72;1.42;;;;;;;18.56;39.84;101570.91;4955842;29;20066;-85
2022/05/21 01:20:51;;;;;;;5.55;1.20;;;;;;;18.54;40.13;101570.88;4958788;29;20048;-86
2022/05/21 01:23:21;;;;;;;2.67;1.00;;;;;;;18.50;40.92;101565.59;4942749;29;20072;-86
2022/05/21 01:25:51;;;;;;;2.70;0.90;;;;;;;18.45;40.18;101572.53;4938205;29;20099;-86
2022/05/21 01:28:22;;;;;;;17.98;2.53;;;;;;;18.44;40.60;101569.03;4936871;29;20310;-86
2022/05/21 01:30:52;;;;;;;5.13;1.30;;;;;;;18.38;40.90;101561.09;4939830;29;20055;-86
2022/05/21 01:33:24;;;;;;;2.38;0.90;;;;;;;18.30;40.35;101566.28;4938046;29;20052;-85
2022/05/21 01:35:52;;;;;;;2.60;0.90;;;;;;;18.16;40.43;101555.66;4938573;29;20052;-86
2022/05/21 01:38:27;;;;;;;5.22;1.10;;;;;;;18.05;41.92;101557.28;4937661;29;20052;-86
2022/05/21 01:40:57;;;;;;;1.33;0.80;;;;;;;17.94;41.34;101558.88;4937869;29;20492;-86
2022/05/21 01:46:11;;;;;;;2.95;1.00;;;;;;;17.81;40.73;101552.59;4935216;29;20509;-84
2022/05/21 01:48:40;;;;;;;4.35;1.20;;;;;;;17.72;41.42;101553.31;4935306;29;20119;-82
2022/05/21 01:51:09;;;;;;;2.55;1.00;;;;;;;17.75;41.84;101549.88;4935169;29;20671;-82
2022/05/21 01:53:41;;;;;;;2.75;1.13;;;;;;;17.73;42.09;101547.25;4936417;29;20051;-83
2022/05/21 01:56:11;;;;;;;2.47;0.95;;;;;;;17.72;43.43;101536.75;4936988;28;20055;-83
2022/05/21 01:58:41;;;;;;;2.00;1.20;;;;;;;17.70;42.71;101541.97;4938843;29;20083;-86
2022/05/21 02:01:11;;;;;;;4.78;3.47;;;;;;;17.74;43.51;101535.03;4937527;29;20052;-86
2022/05/21 02:03:40;;;;;;;4.30;3.70;;;;;;;17.70;43.12;101528.88;4935438;29;20044;-85
2022/05/21 02:06:08;;;;;;;2.88;1.40;;;;;;;17.66;41.75;101532.34;4940027;29;20048;-86
2022/05/21 02:08:39;;;;;;;3.13;1.05;;;;;;;17.61;42.30;101523.53;4945585;29;20048;-86
2022/05/21 02:11:07;;;;;;;2.42;0.90;;;;;;;17.53;43.48;101526.06;4940840;29;20059;-86
2022/05/21 02:13:36;;;;;;;3.47;1.30;;;;;;;17.52;43.77;101531.25;4943236;29;20394;-86
2022/05/21 02:16:06;;;;;;;2.78;1.23;;;;;;;17.57;44.27;101529.59;4958496;29;20053;-85
2022/05/21 02:18:37;;;;;;;3.88;1.45;;;;;;;17.57;43.98;101527.84;4958383;29;20051;-87
2022/05/21 02:21:07;;;;;;;2.08;1.40;;;;;;;17.56;45.20;101530.44;4957036;29;20074;-86
2022/05/21 02:23:36;;;;;;;4.25;1.40;;;;;;;17.56;44.36;101517.34;4937993;29;20043;-88
2022/05/21 02:26:06;;;;;;;3.60;1.52;;;;;;;17.55;43.92;101523.47;4934774;29;20090;-87
2022/05/21 02:28:34;;;;;;;1.77;0.95;;;;;;;17.54;43.56;101526.91;4934386;29;20111;-86
2022/05/21 02:31:03;;;;;;;3.20;1.30;;;;;;;17.48;43.29;101522.50;4934543;29;20112;-86
2022/05/21 02:33:32;;;;;;;4.13;2.03;;;;;;;17.44;43.12;101525.06;4933668;29;20082;-86
2022/05/21 02:36:00;;;;;;;4.63;2.53;;;;;;;17.41;44.14;101525.00;4934116;29;20048;-86
2022/05/21 02:41:18;;;;;;;3.30;1.30;;;;;;;17.16;44.51;101519.44;4937152;29;20474;-85
2022/05/21 02:43:47;;;;;;;6.20;1.13;;;;;;;17.07;45.78;101519.31;4936408;29;20067;-85
2022/05/21 02:46:16;;;;;;;7.18;1.67;;;;;;;17.00;45.63;101514.84;4936385;29;20079;-86
2022/05/21 02:48:44;;;;;;;5.40;1.33;;;;;;;16.96;45.70;101512.16;4935472;29;20047;-86
2022/05/21 02:51:13;;;;;;;3.22;2.70;;;;;;;16.88;45.23;101513.78;4934231;29;20138;-86
2022/05/21 02:53:42;;;;;;;4.13;1.40;;;;;;;16.81;45.63;101517.13;4934633;29;20051;-86
2022/05/21 02:56:14;;;;;;;2.58;1.30;;;;;;;16.76;45.39;101503.97;4935163;28;20047;-86
2022/05/21 02:58:44;;;;;;;6.65;1.65;;;;;;;16.72;45.33;101503.88;4936723;29;20059;-88
2022/05/21 03:01:12;;;;;;;3.03;1.23;;;;;;;16.67;45.55;101502.94;4939684;29;20040;-84
2022/05/21 03:03:41;;;;;;;3.38;1.40;;;;;;;16.60;45.65;101511.53;4936676;29;20078;-88
2022/05/21 03:06:09;;;;;;;3.20;1.10;;;;;;;16.53;46.82;101500.97;4936008;29;20095;-85
2022/05/21 03:11:22;;;;;;;2.75;1.15;;;;;;;16.42;46.40;101502.53;4938839;29;20059;-86
2022/05/21 03:14:06;;;;;;;3.30;1.55;;;;;;;16.36;47.26;101502.44;4949798;29;20051;-85
2022/05/21 03:16:35;;;;;;;3.15;1.25;;;;;;;16.28;47.90;101494.44;4954796;29;20054;-84
2022/05/21 03:19:03;;;;;;;6.13;1.38;;;;;;;16.22;47.14;101496.09;4954177;29;20047;-85
2022/05/21 03:21:32;;;;;;;3.50;1.10;;;;;;;16.15;47.17;101491.59;4952314;29;20542;-86
2022/05/21 03:24:00;;;;;;;5.40;1.38;;;;;;;16.05;47.31;101496.63;4934348;29;20052;-86
2022/05/21 03:26:29;;;;;;;1.80;1.10;;;;;;;15.98;48.68;101493.88;4933659;29;20102;-87
2022/05/21 03:28:59;;;;;;;3.45;1.38;;;;;;;15.90;48.94;101504.19;4933880;29;20056;-85
2022/05/21 03:31:28;;;;;;;5.10;2.00;;;;;;;15.82;47.75;101497.94;4933773;29;20055;-86
2022/05/21 03:33:56;;;;;;;3.95;1.73;;;;;;;15.72;48.01;101490.78;4933187;29;20083;-86
2022/05/21 03:36:24;;;;;;;5.18;2.60;;;;;;;15.63;48.06;101494.91;4934695;29;20090;-86
2022/05/21 03:38:55;;;;;;;3.60;1.50;;;;;;;15.56;48.62;101490.44;4933579;29;20131;-86
2022/05/21 03:41:24;;;;;;;5.68;1.95;;;;;;;15.45;48.56;101486.72;4933151;29;20051;-86
2022/05/21 03:43:52;;;;;;;4.15;1.40;;;;;;;15.39;48.89;101503.13;4933090;29;20443;-86
2022/05/21 03:46:22;;;;;;;3.88;1.40;;;;;;;15.32;49.24;101492.50;4932758;29;20087;-86
2022/05/21 03:48:51;;;;;;;4.45;1.65;;;;;;;15.23;50.41;101494.09;4933653;29;20043;-85
2022/05/21 03:51:20;;;;;;;2.60;1.10;;;;;;;15.15;50.95;101503.44;4933620;29;20062;-85
2022/05/21 03:53:48;;;;;;;2.85;1.23;;;;;;;15.07;52.55;101503.28;4932741;29;20118;-86
2022/05/21 03:56:17;;;;;;;3.85;1.58;;;;;;;14.98;51.68;101500.47;4935286;28;20492;-86
2022/05/21 03:58:46;;;;;;;4.95;1.95;;;;;;;14.90;51.55;101506.34;4935275;29;20087;-87
2022/05/21 04:01:15;;;;;;;5.55;1.85;;;;;;;14.79;51.69;101511.28;4934714;29;20087;-85
2022/05/21 04:03:45;;;;;;;3.22;1.20;;;;;;;14.70;52.27;101514.53;4939817;29;20479;-86
2022/05/21 04:06:14;;;;;;;4.32;1.63;;;;;;;14.61;53.13;101516.91;4942237;29;20052;-87
2022/05/21 04:08:43;;;;;;;5.18;1.83;;;;;;;14.50;53.45;101513.13;4940523;29;20490;-88
2022/05/21 04:11:11;;;;;;;3.88;1.60;;;;;;;14.41;54.93;101517.25;4932968;29;20052;-87
2022/05/21 04:13:40;;;;;;;3.67;1.83;;;;;;;14.32;56.91;101521.34;4938155;29;20039;-87
2022/05/21 04:16:08;;;;;;;2.38;1.30;;;;;;;14.24;58.46;101518.53;4955395;28;20055;-87
2022/05/21 04:18:37;;;;;;;6.38;1.83;;;;;;;14.17;57.92;101525.28;4956302;29;20576;-87
2022/05/21 04:21:07;;;;;;;3.13;1.50;;;;;;;14.10;59.01;101522.50;4954782;29;20094;-88
2022/05/21 04:23:35;;;;;;;2.47;1.40;;;;;;;14.02;58.78;101533.56;4917481;29;20139;-85
2022/05/21 04:26:04;;;;;;;5.80;1.75;;;;;;;13.94;59.11;101528.97;4919203;29;20056;-86
2022/05/21 04:28:35;;;;;;;3.17;1.63;;;;;;;13.87;59.10;101532.25;4917346;29;20401;-88
2022/05/21 04:31:04;;;;;;;2.15;1.55;;;;;;;13.80;59.64;101531.19;4918307;29;20059;-85
2022/05/21 04:33:32;;;;;;;3.50;1.50;;;;;;;13.74;61.29;101541.41;4918749;29;20052;-86
2022/05/21 04:38:48;;;;;;;4.95;1.65;;;;;;;13.57;63.78;101539.19;4934319;29;20134;-86
2022/05/21 04:41:17;;;;;;;5.00;1.58;;;;;;;13.48;63.07;101544.13;4936811;29;20059;-86
2022/05/21 04:43:45;;;;;;;4.25;1.98;;;;;;;13.39;64.10;101546.44;4935754;29;20052;-87
2022/05/21 04:46:15;;;;;;;7.28;1.48;;;;;;;13.31;66.96;101551.44;4937094;29;20126;-87
2022/05/21 04:48:44;;;;;;;1.35;1.00;;;;;;;13.22;66.22;101556.31;4936831;29;20055;-85
2022/05/21 04:51:13;;;;;;;4.60;1.50;;;;;;;13.11;65.12;101555.97;4939496;29;20130;-86
2022/05/21 04:53:42;;;;;;;3.40;1.67;;;;;;;13.00;64.37;101544.34;4940458;29;20060;-84
2022/05/21 04:56:12;;;;;;;1.95;1.40;;;;;;;12.90;64.75;101552.69;4938023;28;20494;-82
2022/05/21 04:58:40;;;;;;;2.42;1.38;;;;;;;12.83;65.55;101566.25;4936634;29;20052;-83
2022/05/21 05:01:09;;;;;;;3.20;1.58;;;;;;;12.76;65.70;101567.81;4936380;29;20084;-83
2022/05/21 05:03:38;;;;;;;3.60;1.50;;;;;;;12.70;65.26;101567.59;4937240;29;20506;-83
2022/05/21 05:06:08;;;;;;;2.80;1.42;;;;;;;12.60;65.85;101565.50;4936531;29;20058;-85
2022/05/21 05:08:38;;;;;;;2.85;1.40;;;;;;;12.51;65.35;101573.88;4938112;29;20119;-84
2022/05/21 05:11:06;;;;;;;4.05;1.63;;;;;;;12.44;67.59;101574.47;4935732;29;20678;-79
2022/05/21 05:13:36;;;;;;;5.43;1.60;;;;;;;12.34;69.89;101576.72;4939525;29;20054;-83
2022/05/21 05:16:05;;;;;;;2.22;1.10;;;;;;;12.27;69.83;101576.47;4954757;29;20084;-81
2022/05/21 05:18:34;;;;;;;3.60;1.27;;;;;;;12.20;70.09;101580.56;4954694;29;20054;-81
2022/05/21 05:21:03;;;;;;;3.47;1.63;;;;;;;12.18;69.82;101577.03;4954509;29;20059;-84
2022/05/21 05:23:31;;;;;;;5.47;1.23;;;;;;;12.16;70.72;101589.06;4935304;29;20407;-83
2022/05/21 05:26:00;;;;;;;4.80;1.10;;;;;;;12.14;69.28;101577.75;4935209;29;20484;-84
2022/05/21 05:28:30;;;;;;;3.60;1.15;;;;;;;12.15;71.26;101589.91;4934363;29;20056;-83
2022/05/21 05:31:00;;;;;;;6.72;1.10;;;;;;;12.13;71.24;101594.13;4935698;29;20115;-83
2022/05/21 05:33:30;;;;;;;3.95;1.30;;;;;;;12.12;69.89;101595.84;4933680;29;20056;-83
2022/05/21 05:35:58;;;;;;;2.78;1.60;;;;;;;12.12;71.34;101589.78;4935090;29;20479;-84
2022/05/21 05:38:26;;;;;;;1.85;1.20;;;;;;;12.12;70.07;101598.44;4935636;29;20632;-85
2022/05/21 05:40:56;;;;;;;4.40;0.90;;;;;;;12.11;70.46;101600.97;4935212;29;20047;-86
2022/05/21 05:43:24;;;;;;;1.88;0.90;;;;;;;12.10;70.47;101597.50;4935164;29;20047;-85
2022/05/21 05:45:58;;;;;;;4.65;1.00;;;;;;;12.07;70.69;101606.88;4935068;29;20059;-83
2022/05/21 05:48:29;;;;;;;7.63;1.42;;;;;;;12.02;70.88;101608.41;4937556;29;20069;-84
2022/05/21 05:50:59;;;;;;;1.73;0.85;;;;;;;12.01;69.55;101604.06;4937789;29;20597;-83
2022/05/21 05:53:27;;;;;;;2.13;1.08;;;;;;;11.98;71.13;101603.94;4934838;29;20107;-84
2022/05/21 05:55:56;;;;;;;3.75;1.15;;;;;;;11.98;71.11;101606.53;4934839;29;20052;-85
2022/05/21 06:01:10;;;;;;;5.05;1.17;;;;;;;11.89;73.03;101612.28;4935331;29;20516;-85
2022/05/21 06:03:42;;;;;;;5.03;1.40;;;;;;;11.87;74.09;101613.91;4933998;29;20048;-84
2022/05/21 06:06:10;;;;;;;5.60;1.20;;;;;;;11.83;72.46;101618.06;4934266;29;20126;-83
2022/05/21 06:08:38;;;;;;;3.42;1.52;;;;;;;11.80;73.21;101617.09;4933750;29;20053;-84
2022/05/21 06:11:07;;;;;;;8.35;1.02;;;;;;;11.77;75.68;101620.41;4934735;29;20063;-81
2022/05/21 06:13:35;;;;;;;4.10;1.13;;;;;;;11.70;76.26;101615.81;4938369;29;20118;-84
2022/05/21 06:16:04;;;;;;;5.30;1.55;;;;;;;11.65;75.02;101613.06;4952287;29;20051;-82
2022/05/21 06:18:33;;;;;;;3.53;1.10;;;;;;;11.65;74.39;101617.38;4953087;29;20107;-81
2022/05/21 06:21:04;;;;;;;3.17;0.77;;;;;;;11.62;75.10;101620.72;4953145;29;20106;-84
2022/05/21 06:23:33;;;;;;;2.92;0.98;;;;;;;11.61;73.76;101621.53;4934718;29;20126;-84
2022/05/21 06:26:02;;;;;;;3.75;1.00;;;;;;;11.61;74.07;101625.84;4934772;29;20044;-86
2022/05/21 06:28:31;;;;;;;4.55;0.98;;;;;;;11.57;74.59;101622.25;4933563;29;20514;-85
2022/05/21 06:30:59;;;;;;;3.85;1.20;;;;;;;11.55;73.59;101620.44;4934285;29;20086;-86
2022/05/21 06:33:29;;;;;;;3.15;0.70;;;;;;;11.53;73.13;101617.78;4933406;29;20458;-84
2022/05/21 06:36:07;;;;;;;2.35;1.23;;;;;;;11.53;73.08;101616.06;4934234;29;20052;-85
2022/05/21 06:38:37;;;;;;;3.05;0.80;;;;;;;11.54;72.41;101614.34;4934290;29;20565;-85
2022/05/21 06:41:08;;;;;;;2.47;1.15;;;;;;;11.54;72.45;101614.34;4934377;29;20185;-86
2022/05/21 06:43:36;;;;;;;5.68;1.17;;;;;;;11.52;72.02;101616.91;4934617;29;20135;-86
2022/05/21 06:46:05;;;;;;;2.47;1.00;;;;;;;11.52;72.20;101616.91;4937921;29;20086;-84
2022/05/21 06:48:34;;;;;;;2.75;0.63;;;;;;;11.49;71.18;101615.88;4935199;29;20553;-84
2022/05/21 06:51:05;;;;;;;4.68;1.35;;;;;;;11.49;72.61;101621.94;4935451;29;20131;-85
2022/05/21 06:53:34;;;;;;;3.90;0.90;;;;;;;11.47;71.71;101623.59;4934032;29;20059;-87
2022/05/21 06:56:07;;;;;;;4.07;0.98;;;;;;;11.49;72.18;101629.72;4934714;29;20060;-86
2022/05/21 06:58:36;;;;;;;9.45;0.93;;;;;;;11.40;71.85;101608.63;4933748;29;20058;-86
2022/05/21 07:01:04;;;;;;;1.98;1.30;;;;;;;11.47;72.13;101630.47;4932758;29;20494;-86
2022/05/21 07:03:33;;;;;;;2.05;1.00;;;;;;;11.47;72.10;101628.75;4932464;29;20086;-85
2022/05/21 07:08:48;;;;;;;3.60;0.80;;;;;;;11.45;72.50;101630.44;4934212;29;20079;-87
2022/05/21 07:11:16;;;;;;;3.72;0.95;;;;;;;11.45;71.56;101634.72;4933252;29;20609;-85
2022/05/21 07:13:45;;;;;;;3.60;1.00;;;;;;;11.44;71.13;101628.66;4939261;29;20054;-85
2022/05/21 07:16:13;;;;;;;2.17;0.93;;;;;;;11.42;71.27;101630.28;4952573;29;20503;-85
2022/05/21 07:18:42;;;;;;;7.55;1.17;;;;;;;11.38;71.74;101640.47;4952207;29;20058;-87
2022/05/21 07:21:15;;;;;;;3.55;0.90;;;;;;;11.34;71.42;101631.72;4951986;29;20503;-85
2022/05/21 07:23:44;;;;;;;3.70;1.10;;;;;;;11.33;71.95;101630.81;4933172;29;20107;-85
2022/05/21 07:26:14;;;;;;;5.40;1.20;;;;;;;11.32;71.75;101630.78;4933565;29;20091;-87
2022/05/21 07:28:43;;;;;;;2.88;1.02;;;;;;;11.30;72.19;101630.69;4934320;29;20490;-87
2022/05/21 07:31:12;;;;;;;2.10;0.90;;;;;;;11.25;71.63;101626.16;4933937;29;20052;-85
2022/05/21 07:33:40;;;;;;;3.95;1.08;;;;;;;11.23;73.37;101627.81;4932328;29;20051;-85
2022/05/21 07:36:09;;;;;;;1.40;0.90;;;;;;;11.17;72.58;101627.53;4933782;29;20251;-85
2022/05/21 07:38:37;;;;;;;3.50;0.98;;;;;;;11.14;74.43;101628.31;4933511;29;20051;-84
2022/05/21 07:41:06;;;;;;;3.13;0.80;;;;;;;11.11;73.16;101623.88;4933970;29;20087;-85
2022/05/21 07:43:36;;;;;;;4.57;1.15;;;;;;;11.04;73.41;101616.69;4935727;29;20654;-85
2022/05/21 07:46:07;;;;;;;3.55;1.02;;;;;;;11.08;73.39;101628.91;4933384;29;20487;-86
2022/05/21 07:48:35;;;;;;;1.65;0.85;;;;;;;11.07;72.42;101623.69;4933419;29;20075;-85
2022/05/21 07:51:06;;;;;;;5.70;1.25;;;;;;;11.04;72.83;101621.88;4932893;29;20055;-83
2022/05/21 07:53:37;;;;;;;5.18;0.80;;;;;;;11.05;72.61;101618.44;4933108;29;20078;-86
2022/05/21 07:56:10;;;;;;;3.05;0.88;;;;;;;11.02;73.29;101615.75;4933363;29;20095;-84
2022/05/21 07:58:42;;;;;;;3.22;0.80;;;;;;;10.97;73.18;101625.03;4933436;28;20064;-84
2022/05/21 08:01:12;;;;;;;4.25;0.82;;;;;;;10.94;73.83;101619.69;4933029;29;20449;-85
2022/05/21 08:03:40;;;;;;;0.63;0.47;;;;;;;10.92;73.59;101618.75;4932407;29;20047;-84
2022/05/21 08:06:08;;;;;;;4.38;0.90;;;;;;;10.92;73.79;101615.28;4932774;29;20098;-85
2022/05/21 08:08:37;;;;;;;5.25;1.15;;;;;;;10.92;72.68;101610.97;4932383;29;20556;-84
2022/05/21 08:11:05;;;;;;;3.63;1.02;;;;;;;10.92;72.83;101615.28;4932938;29;20534;-84
2022/05/21 08:13:34;;;;;;;4.00;1.02;;;;;;;10.91;72.61;101609.22;4937185;29;20099;-84
2022/05/21 08:16:05;;;;;;;5.32;1.00;;;;;;;10.89;73.09;101610.88;4951435;29;20102;-84
2022/05/21 08:18:33;;;;;;;5.03;0.75;;;;;;;10.87;71.76;101607.31;4951507;29;20121;-84
2022/05/21 08:21:02;;;;;;;3.30;0.90;;;;;;;10.84;71.82;101607.22;4951180;29;20125;-85
2022/05/21 08:29:01;;;;;;;4.90;1.20;;;;;;;10.83;72.85;101605.41;4932786;29;20055;-84
2022/05/21 08:31:31;;;;;;;4.70;1.05;;;;;;;10.80;72.16;101611.34;4931880;29;20126;-83
2022/05/21 08:34:00;;;;;;;1.05;0.90;;;;;;;10.77;71.52;101594.84;4932176;29;20158;-85
2022/05/21 08:36:29;;;;;;;4.15;1.45;;;;;;;10.80;72.44;101620.84;4932292;29;20458;-84
2022/05/21 08:38:57;;;;;;;2.78;0.88;;;;;;;10.79;72.15;101608.69;4933237;29;20086;-83
2022/05/21 08:41:28;;;;;;;5.55;1.17;;;;;;;10.77;72.03;101610.34;4934586;29;20056;-84
2022/05/21 08:44:02;;;;;;;1.02;0.80;;;;;;;10.73;72.32;101608.44;4933067;29;20133;-85
2022/05/21 08:46:47;;;;;;;4.00;1.33;;;;;;;10.68;72.16;101601.38;4932518;29;20075;-83
2022/05/21 08:49:24;;;;;;;1.95;0.68;;;;;;;10.66;71.94;101597.84;4933083;29;20048;-86
2022/05/21 08:51:59;;;;;;;4.78;0.75;;;;;;;10.60;72.18;101592.38;4932720;29;20079;-83
2022/05/21 08:54:31;;;;;;;1.52;0.57;;;;;;;10.59;71.97;101605.28;4933064;29;20055;-85
2022/05/21 08:56:59;;;;;;;2.83;0.73;;;;;;;10.57;71.89;101594.84;4934031;28;20115;-86
2022/05/21 08:59:34;;;;;;;2.92;0.93;;;;;;;10.57;71.96;101600.03;4932569;29;20078;-85
2022/05/21 09:02:06;;;;;;;1.77;0.88;;;;;;;10.55;72.63;101588.72;4933947;29;20172;-84
2022/05/21 09:04:34;;;;;;;;;;;;;;;10.56;73.36;101592.19;4936404;29;20102;-85
2022/05/21 09:07:07;;;;;;;4.90;0.82;;;;;;;10.55;73.46;101587.84;4935555;29;20416;-85
2022/05/21 09:09:47;;;;;;;3.65;1.17;;;;;;;10.50;72.71;101590.22;4935659;29;20075;-85
2022/05/21 09:12:20;;;;;;;2.30;0.88;;;;;;;10.46;72.98;101590.91;4935209;29;20043;-86
2022/05/21 09:14:53;;;;;;;2.47;0.65;;;;;;;10.40;73.93;101581.19;4930414;29;20494;-86
2022/05/21 09:17:24;;;;;;;4.28;0.90;;;;;;;10.35;74.62;101589.56;4935327;29;20056;-84
2022/05/21 09:19:55;;;;;;;1.58;0.85;;;;;;;10.25;75.12;101589.13;4935493;29;20052;-85
2022/05/21 09:22:24;;;;;;;3.28;0.85;;;;;;;10.17;75.65;101584.41;4935234;29;20048;-84
2022/05/21 09:24:54;;;;;;;2.70;1.08;;;;;;;10.11;74.68;101589.34;4936606;29;20051;-85
2022/05/21 09:27:26;;;;;;;1.77;1.02;;;;;;;10.06;74.27;101586.56;4934675;29;20044;-85
2022/05/21 09:30:11;;;;;;;6.30;1.40;;;;;;;10.05;74.12;101590.81;4935590;29;20044;-86
2022/05/21 09:32:42;;;;;;;2.75;1.05;;;;;;;10.01;74.79;101583.75;4935329;29;20134;-86
2022/05/21 09:35:13;;;;;;;3.33;1.00;;;;;;;10.04;74.32;101585.59;4935628;29;20135;-85
2022/05/21 09:37:43;;;;;;;3.30;1.02;;;;;;;10.04;74.06;101585.59;4937963;29;20164;-85
2022/05/21 09:40:35;;;;;;;4.40;1.08;;;;;;;10.03;73.29;101581.22;4937198;29;20485;-86
2022/05/21 09:46:17;;;;;;;2.58;1.02;;;;;;;10.03;74.28;101586.41;4935843;29;20067;-85
2022/05/21 09:48:47;;;;;;;4.38;0.98;;;;;;;10.02;74.57;101584.63;4935350;29;20061;-84
2022/05/21 09:51:29;;;;;;;4.03;1.00;;;;;;;9.98;75.57;101580.13;4935427;29;20058;-85
2022/05/21 09:53:58;;;;;;;2.10;0.80;;;;;;;9.95;76.29;101578.31;4934217;29;20502;-84
2022/05/21 09:56:28;;;;;;;3.53;0.80;;;;;;;9.92;77.99;101582.44;4926248;29;20059;-86
2022/05/21 09:59:13;;;;;;;2.92;1.20;;;;;;;9.86;77.73;101576.19;4935030;29;20558;-85
2022/05/21 10:01:44;;;;;;;4.18;0.90;;;;;;;9.85;76.28;101577.00;4934847;29;20059;-85
2022/05/21 10:04:27;;;;;;;2.05;1.08;;;;;;;9.82;76.70;101573.38;4934868;29;20051;-86
2022/05/21 10:07:03;;;;;;;2.28;1.00;;;;;;;9.79;77.54;101571.56;4934509;29;20048;-84
2022/05/21 10:12:27;;;;;;;;;;;;;;;9.76;77.56;101570.53;4934926;29;20062;-85
2022/05/21 10:15:08;;;;;;;0.88;0.65;;;;;;;9.76;77.64;101571.44;4949542;29;20455;-86
2022/05/21 10:17:40;;;;;;;1.55;1.00;;;;;;;9.73;77.32;101568.69;4953345;29;20489;-84
2022/05/21 10:20:17;;;;;;;3.63;1.10;;;;;;;9.70;78.09;101570.25;4954019;29;20646;-85
2022/05/21 10:22:55;;;;;;;3.22;0.77;;;;;;;9.67;77.44;101571.00;4950136;29;20185;-85
2022/05/21 10:25:28;;;;;;;2.97;1.02;;;;;;;9.65;78.34;101568.34;4934024;29;20103;-86
2022/05/21 10:28:13;;;;;;;4.63;0.63;;;;;;;9.64;78.85;101573.41;4934690;29;20090;-86
2022/05/21 10:31:02;;;;;;;2.03;1.25;;;;;;;9.63;78.22;101569.09;4934809;29;20100;-86
2022/05/21 10:33:57;;;;;;;1.83;0.80;;;;;;;9.59;78.19;101567.16;4934992;29;20055;-86
2022/05/21 10:36:38;;;;;;;2.33;0.88;;;;;;;9.55;78.26;101567.81;4939212;29;20502;-86
2022/05/21 10:39:30;;;;;;;3.03;0.70;;;;;;;9.52;76.33;101562.53;4917195;29;20048;-86
2022/05/21 10:42:24;;;;;;;3.35;1.15;;;;;;;9.49;77.01;101572.72;4915842;29;20058;-86
2022/05/21 10:45:09;;;;;;;6.93;1.27;;;;;;;9.44;77.70;101563.06;4916783;29;20088;-86
2022/05/21 10:47:57;;;;;;;4.75;1.08;;;;;;;9.39;77.73;101564.56;4919170;29;20044;-86
2022/05/21 10:50:30;;;;;;;1.30;0.75;;;;;;;9.36;77.19;101564.38;4918120;29;20048;-86
2022/05/21 10:53:34;;;;;;;3.22;1.23;;;;;;;9.33;77.82;101566.84;4920624;29;20056;-85
2022/05/21 10:56:14;;;;;;;3.58;0.80;;;;;;;9.29;77.40;101562.31;4914654;29;20082;-86
2022/05/21 10:59:00;;;;;;;4.22;0.60;;;;;;;9.26;77.30;101564.78;4917362;29;20060;-85
2022/05/21 11:01:36;;;;;;;2.88;0.73;;;;;;;9.21;78.02;101563.69;4915824;29;20111;-85
2022/05/21 11:04:48;;;;;;;5.30;0.82;;;;;;;9.16;78.37;101565.13;4922912;29;20043;-86
2022/05/21 11:07:31;;;;;;;2.80;0.95;;;;;;;9.13;79.01;101567.56;4934828;29;20126;-86
2022/05/21 11:10:04;;;;;;;;;;;;;;;9.08;79.28;101566.47;4934915;29;20047;-86
2022/05/21 11:12:47;;;;;;;1.50;0.70;;;;;;;9.05;81.25;101566.31;4934668;29;19978;-86
2022/05/21 11:15:35;;;;;;;1.42;0.70;;;;;;;8.98;83.89;101572.91;4951945;29;20083;-85
2022/05/21 11:18:11;;;;;;;5.50;0.85;;;;;;;8.91;84.81;101569.13;4933813;29;20082;-86
2022/05/21 11:20:46;;;;;;;3.42;0.85;;;;;;;8.88;84.72;101568.94;4933441;29;20048;-85
2022/05/21 11:23:21;;;;;;;4.47;0.80;;;;;;;8.90;83.88;101569.91;4935981;29;20047;-85
2022/05/21 11:25:55;;;;;;;2.15;0.80;;;;;;;8.89;82.82;101578.47;4934657;29;20075;-85
2022/05/21 11:28:35;;;;;;;1.63;0.80;;;;;;;8.86;82.25;101570.56;4915470;29;20056;-84
2022/05/21 11:31:09;;;;;;;5.78;1.08;;;;;;;8.84;81.99;101577.34;4916096;29;20048;-84
2022/05/21 11:39:18;;;;;;;1.48;1.00;;;;;;;8.69;82.70;101569.75;4918030;29;20059;-86
2022/05/21 11:42:11;;;;;;;1.63;0.90;;;;;;;8.67;83.38;101578.22;4915964;29;20040;-86
2022/05/21 11:44:58;;;;;;;3.40;1.40;;;;;;;8.65;84.48;101577.25;4914796;29;20159;-86
2022/05/21 11:47:44;;;;;;;3.03;0.90;;;;;;;8.62;84.37;101575.41;4916000;29;20087;-86
2022/05/21 11:50:18;;;;;;;4.35;1.00;;;;;;;8.58;83.67;101573.47;4916264;29;20167;-85
2022/05/21 11:53:11;;;;;;;1.92;0.85;;;;;;;8.53;83.86;101574.94;4924890;29;20059;-85
2022/05/21 11:55:58;;;;;;;2.20;1.25;;;;;;;8.50;84.41;101580.84;4935355;29;20055;-86
2022/05/21 11:58:29;;;;;;;2.95;0.93;;;;;;;8.46;83.61;101578.91;4934774;28;20421;-85
2022/05/21 12:00:59;;;;;;;3.58;1.00;;;;;;;8.41;84.46;101575.22;4933979;29;20518;-85
2022/05/21 12:03:54;;;;;;;2.95;0.65;;;;;;;8.36;85.50;101576.59;4933799;29;20055;-86
2022/05/21 12:06:33;;;;;;;1.83;1.40;;;;;;;8.32;85.38;101579.84;4934175;29;20090;-86
2022/05/21 12:09:24;;;;;;;2.95;1.05;;;;;;;8.27;87.00;101581.28;4934185;29;20466;-86
2022/05/21 12:11:53;;;;;;;5.43;0.90;;;;;;;8.24;88.74;101586.28;4932995;29;20052;-86
2022/05/21 12:14:27;;;;;;;2.63;0.80;;;;;;;8.19;91.64;101584.34;4944500;29;20051;-84
2022/05/21 12:17:00;;;;;;;3.30;0.95;;;;;;;8.16;94.31;101585.91;4952617;29;20493;-85
2022/05/21 12:20:01;;;;;;;3.78;1.00;;;;;;;8.11;94.39;101590.81;4953446;29;20083;-87
2022/05/21 12:22:38;;;;;;;2.10;0.90;;;;;;;8.08;92.95;101589.75;4948858;29;20048;-87
2022/05/21 12:25:09;;;;;;;2.28;1.10;;;;;;;8.07;92.47;101596.59;4934827;29;20043;-86